Time;durP1;ratioP1;P1;durP2;ratioP2;P2;SDS_P1;SDS_P2;PMS_P1;PMS_P2;Temp;Humidity;BMP_temperature;BMP_pressure;BME280_temperature;BME280_humidity;BME280_pressure;Samples;Min_cycle;Max_cycle;Signal;HPM_P1;HPM_P2
2023/04/18 00:00:05;;;;;;;;;;;;;;;16.40;55.61;102442.47;1273172;23;637;-75
2023/04/18 00:00:56;;;;;;;;;;;;;;;16.40;55.60;102443.34;1273601;23;641;-75
2023/04/18 00:01:47;;;;;;;;;;;;;;;16.42;55.61;102440.56;1272313;23;662;-74
2023/04/18 00:02:38;;;;;;;;;;;;;;;16.38;55.64;102444.38;1272390;23;649;-74
2023/04/18 00:03:29;;;;;;;;;;;;;;;16.38;56.06;102439.88;1273044;23;649;-74
2023/04/18 00:04:19;;;;;;;;;;;;;;;16.41;55.74;102445.06;1272057;23;636;-74
2023/04/18 00:05:11;;;;;;;;;;;;;;;16.40;55.30;102445.16;1272907;23;641;-74
2023/04/18 00:06:02;;;;;;;;;;;;;;;16.39;56.29;102443.44;1271653;23;645;-74
2023/04/18 00:06:52;;;;;;;;;;;;;;;16.41;56.16;102455.81;1272515;23;1948;-74
2023/04/18 00:07:43;;;;;;;;;;;;;;;16.41;55.71;102450.44;1272604;23;661;-74
2023/04/18 00:08:33;;;;;;;;;;;;;;;16.41;55.51;102447.75;1272498;23;665;-74
2023/04/18 00:09:24;;;;;;;;;;;;;;;16.42;55.64;102445.94;1272575;23;611;-74
2023/04/18 00:10:14;;;;;;;;;;;;;;;16.42;55.46;102451.31;1272398;23;677;-75
2023/04/18 00:11:05;;;;;;;;;;;;;;;16.41;55.62;102444.19;1272187;23;658;-75
2023/04/18 00:11:55;;;;;;;;;;;;;;;16.40;55.74;102447.84;1272592;23;642;-75
2023/04/18 00:12:46;;;;;;;;;;;;;;;16.40;55.01;102447.84;1273042;23;657;-75
2023/04/18 00:13:38;;;;;;;;;;;;;;;16.38;55.15;102447.09;1272463;23;626;-74
2023/04/18 00:14:28;;;;;;;;;;;;;;;16.38;55.40;102449.78;1272555;23;622;-75
2023/04/18 00:15:19;;;;;;;;;;;;;;;16.36;55.67;102449.00;1273601;23;677;-75
2023/04/18 00:16:12;;;;;;;;;;;;;;;16.36;55.26;102447.19;1272875;23;654;-75
2023/04/18 00:17:02;;;;;;;;;;;;;;;16.36;55.45;102435.56;1272844;23;641;-74
2023/04/18 00:17:55;;;;;;;;;;;;;;;16.33;55.28;102444.66;1272538;23;638;-75
2023/04/18 00:18:47;;;;;;;;;;;;;;;16.31;55.28;102443.91;1272664;23;689;-74
2023/04/18 00:19:40;;;;;;;;;;;;;;;16.30;55.05;102450.28;1272434;23;627;-74
2023/04/18 00:20:30;;;;;;;;;;;;;;;16.26;55.63;102446.91;1272617;23;692;-74
2023/04/18 00:21:22;;;;;;;;;;;;;;;16.29;55.69;102445.84;1274353;23;649;-75
2023/04/18 00:22:13;;;;;;;;;;;;;;;16.28;55.59;102445.00;1271538;23;678;-75
2023/04/18 00:23:05;;;;;;;;;;;;;;;16.29;55.54;102444.03;1272519;23;677;-75
2023/04/18 00:23:55;;;;;;;;;;;;;;;16.29;55.43;102446.72;1271551;23;598;-75
2023/04/18 00:24:45;;;;;;;;;;;;;;;16.27;54.97;102443.25;1272587;23;704;-75
2023/04/18 00:25:36;;;;;;;;;;;;;;;16.25;54.82;102445.19;1274320;23;637;-75
2023/04/18 00:26:27;;;;;;;;;;;;;;;16.23;54.73;102443.53;1272649;23;614;-75
2023/04/18 00:27:17;;;;;;;;;;;;;;;16.23;55.15;102447.09;1272415;23;779;-75
2023/04/18 00:28:08;;;;;;;;;;;;;;;16.23;55.28;102447.09;1271816;23;614;-74
2023/04/18 00:28:59;;;;;;;;;;;;;;;16.23;55.27;102447.09;1272581;23;672;-75
2023/04/18 00:29:49;;;;;;;;;;;;;;;16.22;55.08;102445.38;1271974;23;637;-74
2023/04/18 00:30:40;;;;;;;;;;;;;;;16.21;54.85;102449.03;1272569;23;812;-74
2023/04/18 00:31:30;;;;;;;;;;;;;;;16.20;54.88;102449.13;1272548;23;669;-73
2023/04/18 00:32:20;;;;;;;;;;;;;;;16.13;54.71;102448.63;1272439;23;654;-74
2023/04/18 00:33:11;;;;;;;;;;;;;;;16.12;54.61;102446.88;1274229;23;609;-74
2023/04/18 00:34:01;;;;;;;;;;;;;;;16.11;54.54;102444.31;1272553;23;606;-75
2023/04/18 00:34:52;;;;;;;;;;;;;;;16.11;54.59;102442.50;1272661;23;608;-75
2023/04/18 00:35:42;;;;;;;;;;;;;;;16.11;54.26;102447.00;1274236;23;664;-75
2023/04/18 00:36:32;;;;;;;;;;;;;;;16.11;54.39;102439.81;1274156;23;645;-75
2023/04/18 00:37:23;;;;;;;;;;;;;;;16.12;54.33;102446.88;1272298;23;610;-74
2023/04/18 00:38:13;;;;;;;;;;;;;;;16.10;53.98;102442.59;1272452;23;610;-74
2023/04/18 00:39:05;;;;;;;;;;;;;;;16.04;54.28;102449.22;1272859;23;622;-74
2023/04/18 00:39:55;;;;;;;;;;;;;;;16.05;54.34;102445.56;1271928;23;654;-74
2023/04/18 00:40:46;;;;;;;;;;;;;;;16.06;54.20;102439.22;1272892;23;610;-72
2023/04/18 00:41:36;;;;;;;;;;;;;;;16.07;53.38;102440.09;1274465;23;620;-74
2023/04/18 00:42:28;;;;;;;;;;;;;;;16.07;54.50;102445.47;1272831;23;634;-74
2023/04/18 00:43:18;;;;;;;;;;;;;;;16.06;54.30;102441.06;1272796;23;606;-75
2023/04/18 00:44:09;;;;;;;;;;;;;;;16.07;54.23;102445.47;1272774;23;650;-74
2023/04/18 00:44:59;;;;;;;;;;;;;;;16.07;54.21;102445.47;1272736;23;626;-74
2023/04/18 00:45:49;;;;;;;;;;;;;;;16.05;54.00;102445.56;1272799;23;610;-74
2023/04/18 00:46:40;;;;;;;;;;;;;;;16.04;53.80;102445.66;1270997;23;637;-74
2023/04/18 00:47:30;;;;;;;;;;;;;;;16.00;53.65;102444.97;1272729;23;641;-75
2023/04/18 00:48:21;;;;;;;;;;;;;;;15.99;53.69;102448.63;1272799;23;704;-74
2023/04/18 00:49:11;;;;;;;;;;;;;;;15.97;53.90;102445.16;1272498;23;614;-74
2023/04/18 00:50:02;;;;;;;;;;;;;;;15.95;53.26;102441.69;1271830;23;621;-74
2023/04/18 00:50:52;;;;;;;;;;;;;;;15.94;53.76;102442.69;1271828;23;614;-73
2023/04/18 00:51:43;;;;;;;;;;;;;;;15.97;54.07;102445.16;1272702;23;612;-73
2023/04/18 00:52:34;;;;;;;;;;;;;;;15.97;53.80;102448.72;1274350;23;637;-73
2023/04/18 00:53:25;;;;;;;;;;;;;;;15.96;53.88;102440.75;1272825;23;626;-73
2023/04/18 00:54:15;;;;;;;;;;;;;;;15.96;54.03;102438.06;1274571;23;655;-74
2023/04/18 00:55:06;;;;;;;;;;;;;;;15.96;53.58;102446.13;1272598;23;661;-74
2023/04/18 00:55:56;;;;;;;;;;;;;;;15.94;53.79;102443.53;1272677;23;609;-74
2023/04/18 00:56:46;;;;;;;;;;;;;;;15.95;53.39;102444.38;1272803;23;609;-75
2023/04/18 00:57:37;;;;;;;;;;;;;;;15.93;53.67;102439.13;1272618;23;673;-74
2023/04/18 00:58:27;;;;;;;;;;;;;;;15.94;53.86;102443.53;1272626;23;614;-75
2023/04/18 00:59:18;;;;;;;;;;;;;;;15.93;53.65;102444.50;1272906;23;598;-74
2023/04/18 01:00:11;;;;;;;;;;;;;;;15.93;53.94;102443.66;1272572;23;618;-74
2023/04/18 01:01:02;;;;;;;;;;;;;;;15.93;53.56;102449.03;1271915;23;1101;-71
2023/04/18 01:01:52;;;;;;;;;;;;;;;15.93;53.21;102451.72;1274220;23;656;-73
2023/04/18 01:02:42;;;;;;;;;;;;;;;15.91;53.66;102446.44;1272529;23;628;-73
2023/04/18 01:03:33;;;;;;;;;;;;;;;15.89;53.59;102437.59;1272601;23;637;-73
2023/04/18 01:04:24;;;;;;;;;;;;;;;15.89;53.68;102442.09;1271909;23;669;-73
2023/04/18 01:05:14;;;;;;;;;;;;;;;15.88;53.86;102452.00;1272413;23;633;-73
2023/04/18 01:06:05;;;;;;;;;;;;;;;15.87;53.60;102446.72;1274087;23;633;-74
2023/04/18 01:06:55;;;;;;;;;;;;;;;15.82;53.83;102443.44;1272344;23;1947;-74
2023/04/18 01:07:46;;;;;;;;;;;;;;;15.84;53.95;102441.50;1272494;23;661;-74
2023/04/18 01:08:36;;;;;;;;;;;;;;;15.84;54.23;102445.06;1274189;23;609;-74
2023/04/18 01:09:26;;;;;;;;;;;;;;;15.83;54.25;102442.47;1271660;23;666;-74
2023/04/18 01:10:17;;;;;;;;;;;;;;;15.84;54.32;102444.19;1272400;23;797;-74
2023/04/18 01:11:07;;;;;;;;;;;;;;;15.83;54.26;102435.28;1272328;23;614;-74
2023/04/18 01:11:58;;;;;;;;;;;;;;;15.83;54.90;102445.16;1272731;23;665;-74
2023/04/18 01:12:48;;;;;;;;;;;;;;;15.84;54.36;102441.50;1274265;23;598;-74
2023/04/18 01:13:39;;;;;;;;;;;;;;;15.85;54.72;102441.41;1271745;23;661;-74
2023/04/18 01:14:29;;;;;;;;;;;;;;;15.85;54.43;102433.34;1271497;23;744;-74
2023/04/18 01:15:20;;;;;;;;;;;;;;;15.83;54.38;102435.28;1271191;23;617;-74
2023/04/18 01:16:10;;;;;;;;;;;;;;;15.84;54.74;102439.69;1274071;23;770;-74
2023/04/18 01:17:01;;;;;;;;;;;;;;;15.85;54.80;102435.19;1272479;23;633;-74
2023/04/18 01:17:52;;;;;;;;;;;;;;;15.86;54.56;102447.66;1274292;23;653;-74
2023/04/18 01:18:42;;;;;;;;;;;;;;;15.85;54.86;102435.19;1272414;23;601;-74
2023/04/18 01:19:33;;;;;;;;;;;;;;;15.86;54.96;102442.28;1272561;23;637;-75
2023/04/18 01:20:25;;;;;;;;;;;;;;;15.84;55.17;102434.31;1273961;23;641;-74
2023/04/18 01:21:16;;;;;;;;;;;;;;;15.85;54.85;102436.03;1272404;23;700;-75
2023/04/18 01:22:07;;;;;;;;;;;;;;;15.84;54.60;102437.00;1271833;23;639;-75
2023/04/18 01:22:57;;;;;;;;;;;;;;;15.84;54.45;102434.31;1274167;23;637;-75
2023/04/18 01:23:48;;;;;;;;;;;;;;;15.83;54.87;102429.91;1272723;23;645;-75
2023/04/18 01:24:38;;;;;;;;;;;;;;;15.82;54.17;102430.00;1272692;23;634;-75
2023/04/18 01:25:29;;;;;;;;;;;;;;;15.83;54.46;102434.41;1272782;23;665;-75
2023/04/18 01:26:19;;;;;;;;;;;;;;;15.82;54.46;102436.22;1274376;23;720;-75
2023/04/18 01:27:10;;;;;;;;;;;;;;;15.81;54.62;102439.00;1271936;23;1866;-75
2023/04/18 01:28:00;;;;;;;;;;;;;;;15.80;54.63;102429.22;1271277;23;629;-75
2023/04/18 01:28:51;;;;;;;;;;;;;;;15.80;54.77;102431.91;1272832;23;688;-75
2023/04/18 01:29:41;;;;;;;;;;;;;;;15.80;54.69;102432.75;1272821;23;593;-75
2023/04/18 01:30:32;;;;;;;;;;;;;;;15.80;54.25;102423.84;1272290;23;614;-75
2023/04/18 01:31:22;;;;;;;;;;;;;;;15.78;54.35;102429.31;1271790;23;609;-75
2023/04/18 01:32:13;;;;;;;;;;;;;;;15.78;54.35;102420.38;1272545;23;653;-75
2023/04/18 01:33:03;;;;;;;;;;;;;;;15.77;54.64;102426.72;1273150;23;673;-74
2023/04/18 01:33:53;;;;;;;;;;;;;;;15.79;54.79;102427.47;1271679;23;626;-74
2023/04/18 01:34:44;;;;;;;;;;;;;;;15.77;54.45;102424.03;1272535;23;669;-75
2023/04/18 01:35:34;;;;;;;;;;;;;;;15.76;54.96;102420.50;1274348;23;811;-74
2023/04/18 01:36:26;;;;;;;;;;;;;;;15.73;54.91;102425.19;1272415;23;672;-74
2023/04/18 01:37:16;;;;;;;;;;;;;;;15.71;55.12;102421.72;1271360;23;626;-75
2023/04/18 01:38:06;;;;;;;;;;;;;;;15.73;55.03;102419.81;1272445;23;709;-74
2023/04/18 01:38:57;;;;;;;;;;;;;;;15.74;55.15;102417.03;1272499;23;602;-75
2023/04/18 01:39:47;;;;;;;;;;;;;;;15.70;54.93;102418.19;1272381;23;620;-75
2023/04/18 01:40:38;;;;;;;;;;;;;;;15.70;55.13;102415.50;1271857;23;693;-75
2023/04/18 01:41:31;;;;;;;;;;;;;;;15.72;54.61;102420.78;1271368;23;618;-75
2023/04/18 01:42:21;;;;;;;;;;;;;;;15.73;54.71;102419.81;1271287;23;618;-76
2023/04/18 01:43:12;;;;;;;;;;;;;;;15.73;54.82;102419.81;1272870;23;771;-75
2023/04/18 01:44:02;;;;;;;;;;;;;;;15.72;54.80;102423.47;1273256;23;590;-75
2023/04/18 01:44:53;;;;;;;;;;;;;;;15.72;54.27;102423.47;1272306;23;610;-75
2023/04/18 01:45:43;;;;;;;;;;;;;;;15.69;54.17;102418.25;1272802;23;653;-75
2023/04/18 01:46:34;;;;;;;;;;;;;;;15.66;53.95;102418.44;1272342;23;634;-75
2023/04/18 01:47:25;;;;;;;;;;;;;;;15.66;54.14;102418.44;1271704;23;630;-75
2023/04/18 01:48:15;;;;;;;;;;;;;;;15.65;54.26;102414.91;1271378;23;731;-75
2023/04/18 01:49:06;;;;;;;;;;;;;;;15.66;53.69;102418.44;1272465;23;642;-75
2023/04/18 01:49:56;;;;;;;;;;;;;;;15.65;53.37;102412.22;1271214;23;615;-75
2023/04/18 01:50:46;;;;;;;;;;;;;;;15.62;53.98;102415.06;1272492;23;602;-75
2023/04/18 01:51:41;;;;;;;;;;;;;;;15.59;54.05;102418.81;1272446;23;618;-75
2023/04/18 01:52:32;;;;;;;;;;;;;;;15.59;53.79;102423.31;1271803;23;637;-75
2023/04/18 01:53:23;;;;;;;;;;;;;;;15.53;52.95;102416.50;1272395;23;613;-75
2023/04/18 01:54:14;;;;;;;;;;;;;;;15.54;53.07;102420.03;1271869;23;633;-75
2023/04/18 01:55:05;;;;;;;;;;;;;;;15.54;53.26;102414.66;1274248;23;708;-75
2023/04/18 01:55:57;;;;;;;;;;;;;;;15.54;53.40;102420.91;1272668;23;657;-75
2023/04/18 01:56:47;;;;;;;;;;;;;;;15.54;53.55;102415.53;1272471;23;590;-75
2023/04/18 01:57:38;;;;;;;;;;;;;;;15.55;53.24;102421.78;1272605;23;672;-75
2023/04/18 01:58:28;;;;;;;;;;;;;;;15.56;53.61;102419.03;1274264;23;610;-75
2023/04/18 01:59:19;;;;;;;;;;;;;;;15.55;53.33;102416.41;1270920;23;610;-75
2023/04/18 02:00:09;;;;;;;;;;;;;;;15.53;53.38;102413.81;1273210;23;657;-75
2023/04/18 02:01:00;;;;;;;;;;;;;;;15.54;53.02;102415.53;1271574;23;661;-75
2023/04/18 02:01:50;;;;;;;;;;;;;;;15.54;53.10;102415.53;1272459;23;677;-75
2023/04/18 02:02:41;;;;;;;;;;;;;;;15.54;52.98;102415.53;1274256;23;633;-75
2023/04/18 02:03:31;;;;;;;;;;;;;;;15.54;53.31;102420.91;1272638;23;650;-75
2023/04/18 02:04:25;;;;;;;;;;;;;;;15.52;53.17;102428.19;1272737;23;696;-75
2023/04/18 02:05:15;;;;;;;;;;;;;;;15.52;53.49;102422.81;1272502;23;653;-75
2023/04/18 02:06:06;;;;;;;;;;;;;;;15.51;53.49;102421.09;1272609;23;682;-75
2023/04/18 02:06:56;;;;;;;;;;;;;;;15.52;52.71;102414.75;1272437;23;1952;-75
2023/04/18 02:07:48;;;;;;;;;;;;;;;15.49;53.07;102428.38;1272544;23;669;-75
2023/04/18 02:08:39;;;;;;;;;;;;;;;15.49;53.06;102422.13;1271738;23;634;-75
2023/04/18 02:09:30;;;;;;;;;;;;;;;15.44;52.79;102424.22;1272403;23;657;-75
2023/04/18 02:10:20;;;;;;;;;;;;;;;15.43;52.36;102412.59;1271784;23;657;-75
2023/04/18 02:11:10;;;;;;;;;;;;;;;15.41;52.86;102413.66;1272210;23;630;-75
2023/04/18 02:12:01;;;;;;;;;;;;;;;15.40;52.41;102415.50;1272355;23;610;-75
2023/04/18 02:12:52;;;;;;;;;;;;;;;15.39;52.72;102410.22;1271809;23;661;-75
2023/04/18 02:13:42;;;;;;;;;;;;;;;15.39;52.14;102413.78;1272125;23;652;-75
2023/04/18 02:14:32;;;;;;;;;;;;;;;15.40;52.66;102414.66;1272639;23;654;-74
2023/04/18 02:15:23;;;;;;;;;;;;;;;15.37;52.33;102417.50;1272516;23;650;-75
2023/04/18 02:16:13;;;;;;;;;;;;;;;15.36;52.12;102410.41;1272613;23;604;-75
2023/04/18 02:17:04;;;;;;;;;;;;;;;15.36;52.09;102413.97;1272302;23;622;-75
2023/04/18 02:17:54;;;;;;;;;;;;;;;15.36;52.39;102411.28;1271550;23;618;-75
2023/04/18 02:18:45;;;;;;;;;;;;;;;15.37;52.38;102413.00;1272402;23;685;-75
2023/04/18 02:19:35;;;;;;;;;;;;;;;15.36;52.55;102407.72;1271365;23;630;-75
2023/04/18 02:20:26;;;;;;;;;;;;;;;15.36;52.63;102410.41;1272248;23;645;-75
2023/04/18 02:21:16;;;;;;;;;;;;;;;15.36;52.45;102410.41;1272456;23;641;-75
2023/04/18 02:22:06;;;;;;;;;;;;;;;15.34;52.58;102409.63;1272282;23;634;-75
2023/04/18 02:22:57;;;;;;;;;;;;;;;15.34;52.39;102413.19;1272401;23;661;-75
2023/04/18 02:23:48;;;;;;;;;;;;;;;15.32;52.44;102409.72;1271598;23;657;-75
2023/04/18 02:24:38;;;;;;;;;;;;;;;15.27;52.35;102411.81;1274390;23;657;-75
2023/04/18 02:25:29;;;;;;;;;;;;;;;15.27;52.12;102418.03;1272204;23;641;-73
2023/04/18 02:26:19;;;;;;;;;;;;;;;15.29;51.88;102409.91;1273277;23;621;-73
2023/04/18 02:27:10;;;;;;;;;;;;;;;15.27;51.53;102412.66;1272539;23;1889;-73
2023/04/18 02:28:00;;;;;;;;;;;;;;;15.27;51.84;102414.50;1271457;23;637;-74
2023/04/18 02:28:50;;;;;;;;;;;;;;;15.26;51.71;102410.06;1272563;23;618;-74
2023/04/18 02:29:41;;;;;;;;;;;;;;;15.25;51.89;102413.72;1272728;23;625;-73
2023/04/18 02:30:31;;;;;;;;;;;;;;;15.26;52.28;102415.44;1274283;23;609;-74
2023/04/18 02:31:22;;;;;;;;;;;;;;;15.25;52.33;102417.25;1271797;23;630;-74
2023/04/18 02:32:12;;;;;;;;;;;;;;;15.26;52.46;102410.06;1271317;23;602;-74
2023/04/18 02:33:02;;;;;;;;;;;;;;;15.27;52.48;102417.19;1273023;23;637;-74
2023/04/18 02:33:53;;;;;;;;;;;;;;;15.24;52.58;102402.09;1273345;23;641;-74
2023/04/18 02:34:43;;;;;;;;;;;;;;;15.25;52.78;102411.03;1272473;23;606;-75
2023/04/18 02:35:34;;;;;;;;;;;;;;;15.24;52.91;102411.97;1271791;23;626;-73
2023/04/18 02:36:26;;;;;;;;;;;;;;;15.26;52.98;102404.69;1271211;23;652;-74
2023/04/18 02:37:17;;;;;;;;;;;;;;;15.23;53.00;102396.81;1273079;23;617;-73
2023/04/18 02:38:07;;;;;;;;;;;;;;;15.25;52.83;102408.34;1273494;23;645;-74
2023/04/18 02:38:58;;;;;;;;;;;;;;;15.24;53.05;102404.78;1272695;23;645;-74
2023/04/18 02:39:48;;;;;;;;;;;;;;;15.25;52.85;102406.53;1272454;23;641;-74
2023/04/18 02:40:39;;;;;;;;;;;;;;;15.27;52.96;102409.13;1272557;23;661;-73
2023/04/18 02:41:30;;;;;;;;;;;;;;;15.25;52.87;102409.22;1272601;23;661;-73
2023/04/18 02:42:20;;;;;;;;;;;;;;;15.27;53.07;102418.03;1271411;23;606;-73
2023/04/18 02:43:10;;;;;;;;;;;;;;;15.27;52.90;102414.50;1272606;23;594;-73
2023/04/18 02:44:01;;;;;;;;;;;;;;;15.27;52.58;102406.44;1272615;23;642;-74
2023/04/18 02:44:51;;;;;;;;;;;;;;;15.24;53.26;102412.84;1274438;23;642;-74
2023/04/18 02:45:42;;;;;;;;;;;;;;;15.24;53.04;102407.47;1272602;23;681;-74
2023/04/18 02:46:32;;;;;;;;;;;;;;;15.21;53.07;102405.00;1272365;23;597;-74
2023/04/18 02:47:23;;;;;;;;;;;;;;;15.23;53.32;102415.63;1272666;23;652;-74
2023/04/18 02:48:13;;;;;;;;;;;;;;;15.24;53.53;102417.34;1274320;23;645;-74
2023/04/18 02:49:04;;;;;;;;;;;;;;;15.23;53.34;102411.13;1272529;23;597;-74
2023/04/18 02:49:54;;;;;;;;;;;;;;;15.23;52.75;102418.31;1272484;23;725;-74
2023/04/18 02:50:45;;;;;;;;;;;;;;;15.23;52.56;102412.94;1271860;23;808;-74
2023/04/18 02:51:35;;;;;;;;;;;;;;;15.20;53.02;102413.16;1272527;23;610;-74
2023/04/18 02:52:26;;;;;;;;;;;;;;;15.18;52.75;102413.22;1271739;23;712;-73
2023/04/18 02:53:16;;;;;;;;;;;;;;;15.18;52.86;102407.88;1272464;23;642;-74
2023/04/18 02:54:07;;;;;;;;;;;;;;;15.18;53.40;102412.38;1272514;23;645;-74
2023/04/18 02:54:57;;;;;;;;;;;;;;;15.18;52.96;102418.59;1272664;23;661;-73
2023/04/18 02:55:48;;;;;;;;;;;;;;;15.17;52.95;102416.88;1271401;23;618;-73
2023/04/18 02:56:38;;;;;;;;;;;;;;;15.17;53.16;102416.88;1273058;23;648;-73
2023/04/18 02:57:29;;;;;;;;;;;;;;;15.17;53.36;102418.69;1273491;23;629;-73
2023/04/18 02:58:19;;;;;;;;;;;;;;;15.17;53.08;102419.56;1272464;23;637;-73
2023/04/18 02:59:10;;;;;;;;;;;;;;;15.17;52.77;102421.38;1272672;23;875;-72
2023/04/18 03:00:00;;;;;;;;;;;;;;;15.15;52.48;102423.28;1271290;23;711;-73
2023/04/18 03:00:51;;;;;;;;;;;;;;;15.14;52.21;102413.50;1272703;23;704;-73
2023/04/18 03:01:41;;;;;;;;;;;;;;;15.12;52.39;102415.41;1274190;23;605;-73
2023/04/18 03:02:32;;;;;;;;;;;;;;;15.11;52.34;102414.53;1272568;23;649;-73
2023/04/18 03:03:22;;;;;;;;;;;;;;;15.11;52.82;102416.34;1272559;23;634;-73
2023/04/18 03:04:12;;;;;;;;;;;;;;;15.12;52.67;102415.41;1272481;23;625;-74
2023/04/18 03:05:03;;;;;;;;;;;;;;;15.12;52.49;102418.09;1272397;23;633;-74
2023/04/18 03:05:53;;;;;;;;;;;;;;;15.10;52.49;102417.31;1272505;23;647;-74
2023/04/18 03:06:44;;;;;;;;;;;;;;;15.08;52.16;102411.16;1272486;23;648;-74
2023/04/18 03:07:34;;;;;;;;;;;;;;;15.08;52.18;102411.16;1273415;23;664;-74
2023/04/18 03:08:25;;;;;;;;;;;;;;;15.09;52.18;102423.63;1272466;23;606;-74
2023/04/18 03:09:15;;;;;;;;;;;;;;;15.07;52.14;102414.81;1272697;23;626;-74
2023/04/18 03:10:06;;;;;;;;;;;;;;;15.07;52.47;102409.44;1271795;23;669;-74
2023/04/18 03:10:56;;;;;;;;;;;;;;;15.05;52.63;102412.19;1272441;23;618;-74
2023/04/18 03:11:47;;;;;;;;;;;;;;;15.03;52.86;102408.78;1271854;23;602;-74
2023/04/18 03:12:37;;;;;;;;;;;;;;;15.04;52.22;102420.38;1272695;23;598;-74
2023/04/18 03:13:27;;;;;;;;;;;;;;;15.05;52.13;102408.69;1272835;23;642;-74
2023/04/18 03:14:18;;;;;;;;;;;;;;;14.97;51.95;102413.63;1274632;23;649;-74
2023/04/18 03:15:08;;;;;;;;;;;;;;;14.97;51.91;102405.56;1272876;23;602;-74
2023/04/18 03:15:59;;;;;;;;;;;;;;;14.98;52.03;102410.84;1272348;23;732;-73
2023/04/18 03:16:50;;;;;;;;;;;;;;;14.98;51.55;102415.34;1273061;23;629;-73
2023/04/18 03:17:40;;;;;;;;;;;;;;;14.97;51.90;102414.50;1272819;23;620;-73
2023/04/18 03:18:31;;;;;;;;;;;;;;;14.96;51.68;102410.06;1272966;23;645;-73
2023/04/18 03:19:21;;;;;;;;;;;;;;;14.93;50.97;102413.78;1274696;23;609;-73
2023/04/18 03:20:12;;;;;;;;;;;;;;;14.86;51.96;102407.06;1272826;23;675;-73
2023/04/18 03:21:02;;;;;;;;;;;;;;;14.89;51.67;102406.88;1273014;23;755;-73
2023/04/18 03:21:52;;;;;;;;;;;;;;;14.91;51.72;102414.84;1272773;23;645;-73
2023/04/18 03:22:43;;;;;;;;;;;;;;;14.94;51.99;102406.59;1273016;23;550;-74
2023/04/18 03:23:33;;;;;;;;;;;;;;;14.96;52.42;102414.56;1274723;23;609;-73
2023/04/18 03:24:24;;;;;;;;;;;;;;;14.94;51.64;102414.66;1272937;23;598;-73
2023/04/18 03:25:14;;;;;;;;;;;;;;;14.94;51.98;102410.16;1273116;23;662;-73
2023/04/18 03:26:05;;;;;;;;;;;;;;;14.96;51.67;102409.22;1272416;23;634;-72
2023/04/18 03:26:55;;;;;;;;;;;;;;;14.94;51.66;102406.59;1271796;23;1881;-72
2023/04/18 03:27:46;;;;;;;;;;;;;;;14.91;51.81;102410.34;1273438;23;614;-73
2023/04/18 03:28:36;;;;;;;;;;;;;;;14.92;51.81;102406.69;1273831;23;641;-73
2023/04/18 03:29:26;;;;;;;;;;;;;;;14.89;51.86;102406.00;1272018;23;692;-72
2023/04/18 03:30:17;;;;;;;;;;;;;;;14.88;52.23;102407.81;1272907;23;653;-72
2023/04/18 03:31:07;;;;;;;;;;;;;;;14.90;52.21;102408.59;1274782;23;743;-73
2023/04/18 03:31:58;;;;;;;;;;;;;;;14.92;52.10;102401.31;1272876;23;654;-73
2023/04/18 03:32:48;;;;;;;;;;;;;;;14.92;52.43;102401.31;1272191;23;630;-73
2023/04/18 03:33:41;;;;;;;;;;;;;;;14.92;52.13;102406.69;1272790;23;610;-73
2023/04/18 03:34:31;;;;;;;;;;;;;;;14.93;52.55;102407.56;1272279;23;626;-73
2023/04/18 03:35:22;;;;;;;;;;;;;;;14.93;52.57;102408.44;1274731;23;625;-73
2023/04/18 03:36:14;;;;;;;;;;;;;;;14.94;52.62;102406.59;1272861;23;606;-73
2023/04/18 03:37:04;;;;;;;;;;;;;;;14.94;52.26;102404.78;1272867;23;633;-74
2023/04/18 03:37:55;;;;;;;;;;;;;;;14.91;51.18;102404.97;1272842;23;681;-73
2023/04/18 03:38:45;;;;;;;;;;;;;;;14.80;53.07;102407.41;1272811;23;634;-73
2023/04/18 03:39:36;;;;;;;;;;;;;;;14.83;52.81;102411.75;1272872;23;641;-73
2023/04/18 03:40:26;;;;;;;;;;;;;;;14.83;53.01;102407.25;1272451;23;673;-72
2023/04/18 03:41:17;;;;;;;;;;;;;;;14.87;53.46;102410.59;1272995;23;633;-72
2023/04/18 03:42:07;;;;;;;;;;;;;;;14.88;53.71;102410.50;1273055;23;665;-72
2023/04/18 03:42:58;;;;;;;;;;;;;;;14.90;53.16;102407.72;1272976;23;626;-70
2023/04/18 03:43:49;;;;;;;;;;;;;;;14.85;53.25;102415.22;1272186;23;712;-73
2023/04/18 03:44:39;;;;;;;;;;;;;;;14.87;53.39;102414.16;1272670;23;728;-73
2023/04/18 03:45:30;;;;;;;;;;;;;;;14.89;53.13;102419.44;1272894;23;625;-72
2023/04/18 03:46:20;;;;;;;;;;;;;;;14.89;53.53;102414.06;1273053;23;645;-73
2023/04/18 03:47:11;;;;;;;;;;;;;;;14.89;53.81;102416.75;1273028;23;1923;-72
2023/04/18 03:48:01;;;;;;;;;;;;;;;14.88;53.42;102415.88;1273678;23;665;-73
2023/04/18 03:48:52;;;;;;;;;;;;;;;14.91;53.95;102421.06;1272926;23;661;-73
2023/04/18 03:49:42;;;;;;;;;;;;;;;14.88;53.51;102421.25;1272131;23;621;-73
2023/04/18 03:50:33;;;;;;;;;;;;;;;14.88;54.20;102425.75;1272803;23;610;-72
2023/04/18 03:51:23;;;;;;;;;;;;;;;14.88;54.20;102421.25;1272887;23;621;-72
2023/04/18 03:52:14;;;;;;;;;;;;;;;14.86;54.18;102417.81;1274547;23;661;-73
2023/04/18 03:53:05;;;;;;;;;;;;;;;14.87;54.25;102424.88;1272104;23;640;-73
2023/04/18 03:53:55;;;;;;;;;;;;;;;14.83;54.57;102411.75;1272700;23;634;-73
2023/04/18 03:54:46;;;;;;;;;;;;;;;14.84;54.11;102419.72;1272804;23;685;-73
2023/04/18 03:55:36;;;;;;;;;;;;;;;14.85;54.51;102424.13;1271944;23;590;-74
2023/04/18 03:56:27;;;;;;;;;;;;;;;14.85;54.39;102415.22;1272805;23;693;-73
2023/04/18 03:57:17;;;;;;;;;;;;;;;14.88;54.45;102423.06;1272973;23;684;-73
2023/04/18 03:58:07;;;;;;;;;;;;;;;14.90;54.26;102422.03;1272755;23;646;-73
2023/04/18 03:58:58;;;;;;;;;;;;;;;14.92;53.78;102419.25;1272974;23;666;-73
2023/04/18 03:59:48;;;;;;;;;;;;;;;14.90;54.14;102422.03;1272830;23;611;-73
2023/04/18 04:00:39;;;;;;;;;;;;;;;14.88;54.05;102420.38;1272909;23;658;-73
2023/04/18 04:01:29;;;;;;;;;;;;;;;14.88;53.53;102431.13;1272636;23;1354;-72
2023/04/18 04:02:20;;;;;;;;;;;;;;;14.87;53.44;102426.69;1272832;23;641;-73
2023/04/18 04:03:10;;;;;;;;;;;;;;;14.88;52.96;102431.97;1272849;23;607;-73
2023/04/18 04:04:01;;;;;;;;;;;;;;;14.86;53.27;102430.38;1271527;23;947;-73
2023/04/18 04:04:52;;;;;;;;;;;;;;;14.84;53.11;102424.22;1273376;23;665;-72
2023/04/18 04:05:42;;;;;;;;;;;;;;;14.84;53.18;102425.09;1273788;23;626;-73
2023/04/18 04:06:33;;;;;;;;;;;;;;;14.84;52.96;102425.09;1274578;23;594;-73
2023/04/18 04:07:23;;;;;;;;;;;;;;;14.84;52.70;102429.59;1274467;23;661;-73
2023/04/18 04:08:14;;;;;;;;;;;;;;;14.80;52.74;102422.66;1272866;23;657;-73
2023/04/18 04:09:04;;;;;;;;;;;;;;;14.75;52.57;102428.28;1273048;23;685;-73
2023/04/18 04:09:54;;;;;;;;;;;;;;;14.73;52.46;102424.81;1272762;23;626;-73
2023/04/18 04:10:45;;;;;;;;;;;;;;;14.74;51.92;102431.03;1272948;23;680;-72
2023/04/18 04:11:35;;;;;;;;;;;;;;;14.74;52.36;102431.03;1271739;23;732;-73
2023/04/18 04:12:26;;;;;;;;;;;;;;;14.74;51.95;102428.38;1272849;23;625;-73
2023/04/18 04:13:16;;;;;;;;;;;;;;;14.74;51.82;102426.53;1273014;23;646;-73
2023/04/18 04:14:07;;;;;;;;;;;;;;;14.74;52.23;102428.38;1272700;23;614;-73
2023/04/18 04:14:57;;;;;;;;;;;;;;;14.72;52.18;102424.91;1272972;23;657;-74
2023/04/18 04:15:47;;;;;;;;;;;;;;;14.70;52.68;102422.28;1272790;23;622;-74
2023/04/18 04:16:38;;;;;;;;;;;;;;;14.71;52.63;102428.53;1272056;23;680;-74
2023/04/18 04:17:28;;;;;;;;;;;;;;;14.70;52.69;102426.78;1274650;23;598;-75
2023/04/18 04:18:19;;;;;;;;;;;;;;;14.69;52.32;102431.31;1272877;23;627;-74
2023/04/18 04:19:09;;;;;;;;;;;;;;;14.66;51.85;102423.44;1272720;23;714;-74
2023/04/18 04:20:00;;;;;;;;;;;;;;;14.67;51.89;102432.38;1272815;23;684;-73
2023/04/18 04:20:50;;;;;;;;;;;;;;;14.68;51.98;102426.91;1272752;23;657;-74
2023/04/18 04:21:41;;;;;;;;;;;;;;;14.69;51.86;102433.97;1271925;23;626;-73
2023/04/18 04:22:31;;;;;;;;;;;;;;;14.69;52.09;102425.09;1272913;23;638;-73
2023/04/18 04:23:24;;;;;;;;;;;;;;;14.67;51.93;102422.50;1272788;23;642;-73
2023/04/18 04:24:14;;;;;;;;;;;;;;;14.66;52.22;102428.81;1272305;23;657;-73
2023/04/18 04:25:06;;;;;;;;;;;;;;;14.66;52.42;102423.44;1272858;23;630;-74
2023/04/18 04:25:57;;;;;;;;;;;;;;;14.65;52.63;102424.41;1271826;23;704;-74
2023/04/18 04:26:49;;;;;;;;;;;;;;;14.62;52.42;102429.94;1271911;23;606;-74